Time;durP1;ratioP1;P1;durP2;ratioP2;P2;SDS_P1;SDS_P2;PMS_P1;PMS_P2;Temp;Humidity;BMP_temperature;BMP_pressure;BME280_temperature;BME280_humidity;BME280_pressure;Samples;Min_cycle;Max_cycle;Signal;HPM_P1;HPM_P2
2022/06/06 00:05:29;;;;;;;;;;;21.10;62.60;;;;;;20958018;28;19946;-75
2022/06/06 00:15:30;;;;;;;;;;;21.10;62.70;;;;;;20942524;28;19920;-74
2022/06/06 00:25:30;;;;;;;;;;;21.10;62.80;;;;;;20970557;28;19920;-74
2022/06/06 00:35:31;;;;;;;;;;;21.00;62.70;;;;;;20967254;28;19934;-74
2022/06/06 00:45:37;;;;;;;;;;;21.10;62.80;;;;;;20977402;28;19943;-74
2022/06/06 00:55:38;;;;;;;;;;;21.10;62.90;;;;;;20994708;28;19917;-75
2022/06/06 01:05:40;;;;;;;;;;;21.10;62.90;;;;;;20975982;28;19924;-75
2022/06/06 01:15:54;;;;;;;;;;;21.10;63.00;;;;;;20972848;28;19912;-74
2022/06/06 01:25:54;;;;;;;;;;;21.00;63.00;;;;;;20960096;28;19928;-74
2022/06/06 01:35:59;;;;;;;;;;;21.00;63.00;;;;;;20978291;28;19924;-74
2022/06/06 01:46:00;;;;;;;;;;;21.00;63.10;;;;;;20996085;28;20015;-74
2022/06/06 01:56:01;;;;;;;;;;;21.00;63.10;;;;;;20951296;28;19967;-75
2022/06/06 02:06:02;;;;;;;;;;;21.10;63.10;;;;;;20977808;28;19963;-74
2022/06/06 02:16:03;;;;;;;;;;;21.00;63.10;;;;;;20976456;28;20003;-74
2022/06/06 02:26:03;;;;;;;;;;;21.00;63.10;;;;;;20992168;28;19938;-76
2022/06/06 02:36:04;;;;;;;;;;;21.00;63.10;;;;;;20945722;28;19920;-75
2022/06/06 02:46:05;;;;;;;;;;;20.90;63.00;;;;;;20973432;28;20030;-74
2022/06/06 02:56:05;;;;;;;;;;;20.90;63.00;;;;;;20963887;28;20267;-75
2022/06/06 03:06:07;;;;;;;;;;;20.90;63.00;;;;;;20969855;28;19921;-74
2022/06/06 03:26:37;;;;;;;;;;;20.80;62.90;;;;;;20986674;28;20011;-75
2022/06/06 03:36:43;;;;;;;;;;;20.90;62.90;;;;;;20988565;28;19913;-75
2022/06/06 03:46:55;;;;;;;;;;;20.90;62.90;;;;;;20978383;28;19920;-74
2022/06/06 03:57:02;;;;;;;;;;;20.90;62.90;;;;;;20964329;28;20259;-74
2022/06/06 04:07:03;;;;;;;;;;;20.80;62.80;;;;;;20957043;28;19963;-75
2022/06/06 04:17:07;;;;;;;;;;;20.90;62.90;;;;;;20962439;28;19970;-74
2022/06/06 04:27:14;;;;;;;;;;;20.80;62.80;;;;;;20984728;28;20023;-75
2022/06/06 04:37:35;;;;;;;;;;;20.80;62.80;;;;;;20983924;28;20386;-74
2022/06/06 04:47:36;;;;;;;;;;;20.80;62.70;;;;;;20971011;28;20321;-75
2022/06/06 04:57:37;;;;;;;;;;;20.70;62.60;;;;;;20981750;28;19919;-75
2022/06/06 05:07:48;;;;;;;;;;;20.90;62.70;;;;;;20971223;28;19925;-75
2022/06/06 05:18:05;;;;;;;;;;;20.80;62.70;;;;;;20981618;28;20280;-74
2022/06/06 05:28:25;;;;;;;;;;;20.80;62.70;;;;;;20980626;28;19921;-75
2022/06/06 05:38:45;;;;;;;;;;;20.80;62.70;;;;;;20981029;28;19913;-74
2022/06/06 05:48:55;;;;;;;;;;;20.80;62.70;;;;;;20995128;28;19924;-75
2022/06/06 05:58:58;;;;;;;;;;;20.90;62.70;;;;;;20995533;28;19916;-74
2022/06/06 06:09:17;;;;;;;;;;;20.90;62.80;;;;;;20977149;28;19927;-75
2022/06/06 06:19:18;;;;;;;;;;;20.90;62.80;;;;;;20990573;28;19952;-76
2022/06/06 06:29:19;;;;;;;;;;;20.90;62.80;;;;;;20974874;28;20391;-76
2022/06/06 06:39:40;;;;;;;;;;;20.90;62.90;;;;;;20967203;28;19920;-76
2022/06/06 06:49:44;;;;;;;;;;;20.90;62.90;;;;;;20986502;28;19920;-73
2022/06/06 06:59:45;;;;;;;;;;;20.90;62.90;;;;;;20949823;28;19923;-76
2022/06/06 07:09:48;;;;;;;;;;;21.00;63.00;;;;;;20971419;28;20011;-74
2022/06/06 07:19:59;;;;;;;;;;;21.00;63.00;;;;;;20989792;28;20275;-73
2022/06/06 07:30:00;;;;;;;;;;;21.00;63.00;;;;;;21300425;22;19925;-78
2022/06/06 07:40:05;;;;;;;;;;;21.00;63.10;;;;;;20873281;28;19920;-73
2022/06/06 07:50:13;;;;;;;;;;;21.00;63.10;;;;;;20858509;28;21651;-76
2022/06/06 08:00:14;;;;;;;;;;;21.00;63.10;;;;;;20868217;28;19924;-76
2022/06/06 08:10:34;;;;;;;;;;;21.00;63.10;;;;;;20858087;28;19929;-80
2022/06/06 08:20:53;;;;;;;;;;;21.00;63.10;;;;;;20891090;28;19920;-81
2022/06/06 08:30:54;;;;;;;;;;;21.00;63.10;;;;;;20908645;28;19943;-78
2022/06/06 08:40:58;;;;;;;;;;;21.00;63.10;;;;;;20905143;28;19965;-80
2022/06/06 08:51:04;;;;;;;;;;;21.00;63.00;;;;;;20905768;28;19928;-79
2022/06/06 09:01:14;;;;;;;;;;;21.00;63.00;;;;;;20891684;28;20317;-77
2022/06/06 09:11:34;;;;;;;;;;;21.10;63.10;;;;;;20913142;28;20011;-78
2022/06/06 09:21:43;;;;;;;;;;;21.10;63.10;;;;;;20915580;28;19912;-76
2022/06/06 09:32:03;;;;;;;;;;;21.00;63.00;;;;;;20906670;28;20007;-76
2022/06/06 09:42:07;;;;;;;;;;;21.10;63.10;;;;;;20902553;28;19925;-77
2022/06/06 09:52:16;;;;;;;;;;;21.10;63.00;;;;;;20912448;28;19948;-74
2022/06/06 10:02:20;;;;;;;;;;;21.10;63.00;;;;;;20909328;28;19967;-74
2022/06/06 10:12:39;;;;;;;;;;;21.20;63.10;;;;;;20909349;28;19956;-74
2022/06/06 10:22:52;;;;;;;;;;;21.20;63.00;;;;;;20898531;28;19964;-74
2022/06/06 10:33:16;;;;;;;;;;;21.20;63.00;;;;;;20912335;28;19927;-76
2022/06/06 10:43:39;;;;;;;;;;;21.20;62.90;;;;;;20910323;28;19924;-73
2022/06/06 10:53:55;;;;;;;;;;;21.20;62.80;;;;;;20905915;28;19913;-76
2022/06/06 11:04:14;;;;;;;;;;;21.20;62.70;;;;;;20891750;28;20009;-75
2022/06/06 11:14:30;;;;;;;;;;;21.20;62.70;;;;;;20889393;28;20000;-77
2022/06/06 11:24:40;;;;;;;;;;;21.20;62.60;;;;;;20880154;28;19948;-78
2022/06/06 11:35:00;;;;;;;;;;;21.20;62.70;;;;;;20874091;28;19963;-78
2022/06/06 11:45:12;;;;;;;;;;;21.30;62.70;;;;;;20903250;28;19921;-75
2022/06/06 11:55:24;;;;;;;;;;;21.30;62.70;;;;;;20902003;28;20335;-78
2022/06/06 12:05:28;;;;;;;;;;;21.20;63.50;;;;;;20881564;28;19931;-84
2022/06/06 12:15:37;;;;;;;;;;;21.20;64.40;;;;;;20885526;28;19951;-81
2022/06/06 12:25:57;;;;;;;;;;;21.20;64.80;;;;;;20886338;28;19939;-84
2022/06/06 12:36:02;;;;;;;;;;;21.20;65.00;;;;;;20905188;28;19920;-81
2022/06/06 12:46:06;;;;;;;;;;;21.20;65.20;;;;;;20891310;28;19944;-79
2022/06/06 12:56:30;;;;;;;;;;;21.20;65.20;;;;;;20900327;28;19932;-78
2022/06/06 13:06:41;;;;;;;;;;;21.30;64.90;;;;;;20908086;28;19928;-78
2022/06/06 13:16:47;;;;;;;;;;;21.40;64.20;;;;;;20898153;28;19913;-78
2022/06/06 13:26:49;;;;;;;;;;;21.40;63.50;;;;;;20914646;28;19936;-79
2022/06/06 13:36:49;;;;;;;;;;;21.50;63.00;;;;;;20890787;28;19963;-79
2022/06/06 13:46:55;;;;;;;;;;;21.50;62.70;;;;;;20918135;28;19975;-76
2022/06/06 13:56:58;;;;;;;;;;;21.50;62.70;;;;;;20914379;28;20282;-79
2022/06/06 14:06:59;;;;;;;;;;;21.50;62.60;;;;;;20899861;28;19920;-77
2022/06/06 14:17:00;;;;;;;;;;;21.60;62.40;;;;;;20912271;28;19916;-80
2022/06/06 14:27:03;;;;;;;;;;;21.60;62.30;;;;;;20918656;28;20000;-77
2022/06/06 14:37:06;;;;;;;;;;;21.70;62.40;;;;;;20914281;28;20386;-78
2022/06/06 14:47:14;;;;;;;;;;;21.60;62.30;;;;;;20879962;28;19917;-78
2022/06/06 14:57:15;;;;;;;;;;;21.60;62.30;;;;;;20897871;28;20368;-79
2022/06/06 15:07:16;;;;;;;;;;;21.50;62.20;;;;;;20879579;28;19923;-79
2022/06/06 15:17:16;;;;;;;;;;;21.50;62.00;;;;;;20894355;28;19917;-81
2022/06/06 15:27:36;;;;;;;;;;;21.60;62.00;;;;;;20892581;28;19921;-80
2022/06/06 15:37:55;;;;;;;;;;;21.60;61.90;;;;;;20905321;28;20450;-77
2022/06/06 15:47:59;;;;;;;;;;;21.60;62.10;;;;;;20907825;28;19921;-79
2022/06/06 15:58:05;;;;;;;;;;;21.50;62.20;;;;;;20921983;28;20481;-78
2022/06/06 16:08:24;;;;;;;;;;;21.50;62.90;;;;;;20887564;28;19917;-81
2022/06/06 16:18:25;;;;;;;;;;;21.60;62.10;;;;;;20885806;28;19923;-82
2022/06/06 16:28:27;;;;;;;;;;;21.70;61.90;;;;;;20907697;28;19920;-79
2022/06/06 16:38:46;;;;;;;;;;;21.80;61.90;;;;;;20877889;28;19921;-80
2022/06/06 16:48:51;;;;;;;;;;;21.80;62.00;;;;;;20903289;28;19921;-79
2022/06/06 16:58:53;;;;;;;;;;;21.70;61.80;;;;;;20897876;28;19917;-82
2022/06/06 17:08:59;;;;;;;;;;;21.70;61.90;;;;;;20906562;28;20011;-82
2022/06/06 17:19:04;;;;;;;;;;;21.80;61.70;;;;;;20885813;28;19917;-82
2022/06/06 17:29:22;;;;;;;;;;;21.90;61.50;;;;;;20922691;28;19928;-82
2022/06/06 17:39:24;;;;;;;;;;;22.00;61.30;;;;;;20921563;28;20316;-81
2022/06/06 17:50:00;;;;;;;;;;;22.00;61.10;;;;;;20895115;28;19932;-83
2022/06/06 18:00:05;;;;;;;;;;;22.10;60.90;;;;;;20845121;28;19956;-82
2022/06/06 18:10:19;;;;;;;;;;;22.10;60.60;;;;;;20916071;28;19970;-81
2022/06/06 18:20:27;;;;;;;;;;;22.20;60.50;;;;;;20905408;28;19921;-80
2022/06/06 18:30:28;;;;;;;;;;;22.10;60.50;;;;;;20876185;28;19965;-81
2022/06/06 18:40:34;;;;;;;;;;;22.00;60.60;;;;;;20889573;28;19920;-78
2022/06/06 18:50:38;;;;;;;;;;;22.00;60.90;;;;;;20873028;28;20035;-82
2022/06/06 19:00:41;;;;;;;;;;;21.80;61.00;;;;;;20863422;28;20279;-79
2022/06/06 19:10:43;;;;;;;;;;;21.80;61.30;;;;;;20906042;28;19916;-80
2022/06/06 19:20:44;;;;;;;;;;;21.70;61.50;;;;;;20867517;28;19920;-79
2022/06/06 19:30:45;;;;;;;;;;;21.70;61.50;;;;;;20886499;28;19924;-79
2022/06/06 19:40:48;;;;;;;;;;;21.60;61.60;;;;;;20863511;28;20381;-79
2022/06/06 19:50:52;;;;;;;;;;;21.60;61.70;;;;;;20885150;28;19920;-80
2022/06/06 20:00:53;;;;;;;;;;;21.60;61.80;;;;;;20885057;28;19999;-79
2022/06/06 20:11:25;;;;;;;;;;;21.60;61.90;;;;;;20890454;28;20053;-79
2022/06/06 20:21:30;;;;;;;;;;;21.50;61.90;;;;;;20883918;28;19970;-78
2022/06/06 20:41:54;;;;;;;;;;;21.50;62.00;;;;;;20884889;28;19912;-78
2022/06/06 20:51:55;;;;;;;;;;;21.40;62.00;;;;;;20881062;28;19923;-78
2022/06/06 21:01:55;;;;;;;;;;;21.30;62.00;;;;;;20870462;28;19955;-78
2022/06/06 21:11:56;;;;;;;;;;;21.40;62.10;;;;;;20882653;28;20465;-78
2022/06/06 21:21:58;;;;;;;;;;;21.40;62.10;;;;;;20916798;28;19963;-78
2022/06/06 21:31:59;;;;;;;;;;;21.40;62.20;;;;;;20897871;28;20375;-78
2022/06/06 21:42:00;;;;;;;;;;;21.40;62.20;;;;;;20899659;28;20011;-78
2022/06/06 21:52:01;;;;;;;;;;;21.30;62.20;;;;;;20912752;28;19960;-78
2022/06/06 22:02:05;;;;;;;;;;;21.30;62.20;;;;;;20915713;28;19913;-78
2022/06/06 22:12:06;;;;;;;;;;;21.30;62.30;;;;;;20911880;28;19921;-78
2022/06/06 22:22:07;;;;;;;;;;;21.30;62.30;;;;;;20912572;28;19952;-78
2022/06/06 22:32:07;;;;;;;;;;;21.30;62.30;;;;;;20911837;28;19949;-78
2022/06/06 22:42:08;;;;;;;;;;;21.20;62.20;;;;;;20910360;28;19940;-78
2022/06/06 22:52:08;;;;;;;;;;;21.20;62.30;;;;;;20907811;28;19928;-78
2022/06/06 23:02:09;;;;;;;;;;;21.20;62.30;;;;;;20898510;28;19927;-77
2022/06/06 23:12:09;;;;;;;;;;;21.20;62.30;;;;;;20914175;28;20371;-77
2022/06/06 23:22:10;;;;;;;;;;;21.10;62.30;;;;;;20889406;28;19912;-78
2022/06/06 23:32:10;;;;;;;;;;;21.20;62.30;;;;;;20907825;28;19927;-78
2022/06/06 23:42:11;;;;;;;;;;;21.20;62.40;;;;;;20904788;28;19913;-77
2022/06/06 23:52:12;;;;;;;;;;;21.10;62.30;;;;;;20888345;28;19960;-78
